createdAt,value
2019-03-28T00:00:42.680Z,102175.78
2019-03-28T00:03:15.076Z,102180.05
2019-03-28T00:05:47.471Z,102180.05
2019-03-28T00:08:20.082Z,102179.57
2019-03-28T00:10:52.341Z,102183.11
2019-03-28T00:13:24.819Z,102183.11
2019-03-28T00:15:58.194Z,102177.00
2019-03-28T00:18:30.852Z,102181.31
2019-03-28T00:21:02.946Z,102183.06
2019-03-28T00:23:36.786Z,102183.97
2019-03-28T00:26:09.586Z,102180.15
2019-03-28T00:28:42.135Z,102173.02
2019-03-28T00:31:14.336Z,102173.02
2019-03-28T00:33:46.771Z,102171.66
2019-03-28T00:36:19.380Z,102170.88
2019-03-28T00:38:51.781Z,102168.74
2019-03-28T00:41:23.891Z,102161.50
2019-03-28T00:43:56.291Z,102161.50
2019-03-28T00:46:28.353Z,102166.27
2019-03-28T00:49:00.516Z,102166.75
2019-03-28T00:51:32.741Z,102155.80
2019-03-28T00:54:04.876Z,102164.95
2019-03-28T00:56:46.608Z,102167.05
2019-03-28T00:59:10.996Z,102165.97
2019-03-28T01:01:43.170Z,102166.06
2019-03-28T01:04:15.996Z,102171.70
2019-03-28T01:06:48.163Z,102171.73
2019-03-28T01:09:20.801Z,102179.16
2019-03-28T01:11:52.980Z,102178.24
2019-03-28T01:14:25.397Z,102178.24
2019-03-28T01:16:57.530Z,102174.36
2019-03-28T01:19:30.023Z,102177.76
2019-03-28T01:22:02.241Z,102177.76
2019-03-28T01:24:34.551Z,102172.65
2019-03-28T01:27:07.007Z,102173.48
2019-03-28T01:29:39.731Z,102176.11
2019-03-28T01:32:11.846Z,102171.34
2019-03-28T01:34:44.361Z,102173.48
2019-03-28T01:37:16.420Z,102170.86
2019-03-28T01:39:48.826Z,102165.19
2019-03-28T01:42:21.554Z,102163.88
2019-03-28T01:44:53.957Z,102165.63
2019-03-28T01:47:26.070Z,102169.91
2019-03-28T01:49:58.285Z,102158.59
2019-03-28T01:52:30.758Z,102164.80
2019-03-28T01:55:03.246Z,102154.72
2019-03-28T01:57:35.771Z,102158.64
2019-03-28T02:00:12.457Z,102167.85
2019-03-28T02:02:45.334Z,102160.48
2019-03-28T02:05:18.252Z,102155.67
2019-03-28T02:07:50.516Z,102160.09
2019-03-28T02:10:22.831Z,102161.41
2019-03-28T02:12:54.980Z,102167.55
2019-03-28T02:15:27.277Z,102167.55
2019-03-28T02:17:59.751Z,102163.62
2019-03-28T02:20:32.026Z,102159.27
2019-03-28T02:23:04.406Z,102156.22
2019-03-28T02:25:37.075Z,102150.54
2019-03-28T02:28:09.452Z,102150.54
2019-03-28T02:30:41.730Z,102156.07
2019-03-28T02:33:14.162Z,102150.44
2019-03-28T02:35:46.562Z,102146.03
2019-03-28T02:38:18.782Z,102146.03
2019-03-28T02:40:50.991Z,102140.80
2019-03-28T02:43:23.442Z,102134.30
2019-03-28T02:45:56.487Z,102134.64
2019-03-28T02:48:29.166Z,102133.86
2019-03-28T02:51:01.522Z,102133.86
2019-03-28T02:53:33.615Z,102136.52
2019-03-28T02:56:05.927Z,102143.55
2019-03-28T02:58:38.232Z,102145.44
2019-03-28T03:01:10.556Z,102146.84
2019-03-28T03:03:42.960Z,102146.84
2019-03-28T03:06:15.549Z,102154.25
2019-03-28T03:08:47.902Z,102157.31
2019-03-28T03:11:20.526Z,102163.42
2019-03-28T03:13:52.631Z,102163.42
2019-03-28T03:16:25.141Z,102163.81
2019-03-28T03:18:57.437Z,102163.33
2019-03-28T03:21:29.731Z,102164.59
2019-03-28T03:24:02.080Z,102169.78
2019-03-28T03:26:34.387Z,102165.37
2019-03-28T03:29:06.816Z,102165.37
2019-03-28T03:31:39.135Z,102165.42
2019-03-28T03:34:11.275Z,102168.91
2019-03-28T03:36:43.804Z,102171.88
2019-03-28T03:39:15.944Z,102179.68
2019-03-28T03:41:48.612Z,102179.68
2019-03-28T03:44:21.106Z,102183.87
2019-03-28T03:46:53.830Z,102183.87
2019-03-28T03:49:26.193Z,102180.51
2019-03-28T03:51:58.547Z,102180.51
2019-03-28T03:54:30.933Z,102186.48
2019-03-28T03:57:03.781Z,102189.02
2019-03-28T03:59:35.972Z,102187.70
2019-03-28T04:02:08.422Z,102189.48
2019-03-28T04:04:41.057Z,102190.67
2019-03-28T04:07:13.636Z,102188.53
2019-03-28T04:09:46.139Z,102188.52
2019-03-28T04:12:18.766Z,102197.69
2019-03-28T04:14:51.562Z,102195.86
2019-03-28T04:17:24.267Z,102193.76
2019-03-28T04:19:56.514Z,102175.97
2019-03-28T04:22:29.122Z,102184.95
2019-03-28T04:25:01.396Z,102184.95
2019-03-28T04:27:34.016Z,102190.23
2019-03-28T04:30:08.976Z,102190.23
2019-03-28T04:32:41.478Z,102190.56
2019-03-28T04:35:13.812Z,102182.27
2019-03-28T04:37:46.732Z,102190.97
2019-03-28T04:40:19.142Z,102200.17
2019-03-28T04:42:51.772Z,102197.94
2019-03-28T04:45:24.266Z,102198.34
2019-03-28T04:47:56.716Z,102206.67
2019-03-28T04:50:28.961Z,102208.12
2019-03-28T04:53:01.487Z,102208.12
2019-03-28T04:55:33.769Z,102203.41
2019-03-28T04:58:06.001Z,102217.29
2019-03-28T05:00:38.326Z,102217.29
2019-03-28T05:03:11.047Z,102211.22
2019-03-28T05:05:43.521Z,102213.80
2019-03-28T05:08:16.094Z,102222.78
2019-03-28T05:10:48.372Z,102217.02
2019-03-28T05:13:20.727Z,102219.53
2019-03-28T05:15:52.972Z,102224.98
2019-03-28T05:18:25.472Z,102226.37
2019-03-28T05:20:57.932Z,102227.98
2019-03-28T05:23:30.752Z,102235.44
2019-03-28T05:26:02.990Z,102231.51
2019-03-28T05:28:35.367Z,102223.12
2019-03-28T05:31:08.355Z,102231.32
2019-03-28T05:33:40.911Z,102227.68
2019-03-28T05:36:13.357Z,102235.84
2019-03-28T05:38:46.176Z,102241.37
2019-03-28T05:41:18.386Z,102237.39
2019-03-28T05:43:50.761Z,102248.75
2019-03-28T05:46:24.656Z,102248.75
2019-03-28T05:48:57.334Z,102261.52
2019-03-28T05:51:29.881Z,102261.52
2019-03-28T05:54:02.261Z,102267.83
2019-03-28T05:56:34.988Z,102265.89
2019-03-28T05:59:11.066Z,102269.08
2019-03-28T06:01:41.266Z,102273.16
2019-03-28T06:04:13.736Z,102282.61
2019-03-28T06:06:46.081Z,102288.38
2019-03-28T06:09:19.278Z,102288.55
2019-03-28T06:11:52.972Z,102285.16
2019-03-28T06:14:25.723Z,102275.92
2019-03-28T06:16:58.019Z,102284.55
2019-03-28T06:19:30.216Z,102288.88
2019-03-28T06:22:03.652Z,102288.88
2019-03-28T06:24:36.041Z,102286.00
2019-03-28T06:27:08.302Z,102288.06
2019-03-28T06:29:40.756Z,102297.70
2019-03-28T06:32:13.371Z,102303.27
2019-03-28T06:34:45.648Z,102303.27
2019-03-28T06:37:18.345Z,102307.81
2019-03-28T06:39:51.260Z,102307.53
2019-03-28T06:42:24.011Z,102312.14
2019-03-28T06:44:56.476Z,102304.91
2019-03-28T06:47:28.826Z,102307.64
2019-03-28T06:50:01.246Z,102310.66
2019-03-28T06:52:34.066Z,102309.77
2019-03-28T06:55:06.721Z,102322.84
2019-03-28T06:57:39.355Z,102318.70
2019-03-28T07:00:11.911Z,102326.25
2019-03-28T07:02:44.066Z,102333.03
2019-03-28T07:05:16.402Z,102329.41
2019-03-28T07:07:48.795Z,102329.91
2019-03-28T07:10:22.391Z,102340.47
2019-03-28T07:12:54.371Z,102341.90
2019-03-28T07:15:26.991Z,102345.61
2019-03-28T07:17:59.676Z,102345.29
2019-03-28T07:20:32.721Z,102347.69
2019-03-28T07:23:04.990Z,102346.34
2019-03-28T07:25:37.446Z,102356.16
2019-03-28T07:28:09.683Z,102362.05
2019-03-28T07:30:42.031Z,102358.12
2019-03-28T07:33:14.273Z,102364.98
2019-03-28T07:35:46.650Z,102362.63
2019-03-28T07:38:19.000Z,102359.37
2019-03-28T07:40:51.575Z,102364.20
2019-03-28T07:43:25.312Z,102364.58
2019-03-28T07:45:58.034Z,102367.46
2019-03-28T07:48:30.995Z,102369.66
2019-03-28T07:51:03.416Z,102360.75
2019-03-28T07:53:35.815Z,102372.84
2019-03-28T07:56:08.153Z,102372.81
2019-03-28T07:58:40.331Z,102371.80
2019-03-28T08:01:12.896Z,102372.06
2019-03-28T08:03:45.285Z,102375.31
2019-03-28T08:06:17.647Z,102375.25
2019-03-28T08:08:50.150Z,102380.38
2019-03-28T08:11:22.765Z,102372.72
2019-03-28T08:13:54.895Z,102372.53
2019-03-28T08:16:29.019Z,102373.72
2019-03-28T08:19:01.519Z,102376.20
2019-03-28T08:21:33.895Z,102375.41
2019-03-28T08:24:06.258Z,102376.52
2019-03-28T08:26:38.580Z,102366.67
2019-03-28T08:29:10.965Z,102370.58
2019-03-28T08:31:45.036Z,102376.76
2019-03-28T08:34:18.583Z,102374.09
2019-03-28T08:36:51.341Z,102370.79
2019-03-28T08:39:23.723Z,102379.92
2019-03-28T08:41:56.470Z,102378.24
2019-03-28T08:44:29.205Z,102372.06
2019-03-28T08:47:01.845Z,102373.77
2019-03-28T08:49:34.191Z,102381.16
2019-03-28T08:52:06.580Z,102384.54
2019-03-28T08:54:39.005Z,102379.70
2019-03-28T08:57:11.676Z,102384.54
2019-03-28T08:59:44.076Z,102385.58
2019-03-28T09:02:16.458Z,102390.75
2019-03-28T09:04:50.332Z,102399.61
2019-03-28T09:07:22.972Z,102404.13
2019-03-28T09:09:55.850Z,102402.87
2019-03-28T09:12:28.370Z,102404.08
2019-03-28T09:15:06.638Z,102403.03
2019-03-28T09:17:39.096Z,102401.86
2019-03-28T09:20:11.415Z,102399.41
2019-03-28T09:22:43.671Z,102401.68
2019-03-28T09:25:16.165Z,102397.41
2019-03-28T09:27:51.563Z,102393.47
2019-03-28T09:30:29.687Z,102388.58
2019-03-28T09:33:02.131Z,102388.88
2019-03-28T09:35:34.622Z,102390.87
2019-03-28T09:38:07.151Z,102389.81
2019-03-28T09:40:39.365Z,102389.50
2019-03-28T09:43:12.050Z,102400.27
2019-03-28T09:45:44.530Z,102398.97
2019-03-28T09:48:17.090Z,102403.56
2019-03-28T09:50:49.575Z,102398.95
2019-03-28T09:53:22.174Z,102399.72
2019-03-28T09:55:54.536Z,102404.88
2019-03-28T09:58:26.913Z,102401.80
2019-03-28T10:01:03.062Z,102403.26
2019-03-28T10:03:33.597Z,102401.11
2019-03-28T10:06:06.201Z,102402.09
2019-03-28T10:08:39.211Z,102412.35
2019-03-28T10:11:11.667Z,102410.20
2019-03-28T10:13:44.101Z,102414.53
2019-03-28T10:16:16.731Z,102413.82
2019-03-28T10:18:49.103Z,102421.95
2019-03-28T10:21:21.433Z,102424.37
2019-03-28T10:23:54.141Z,102423.98
2019-03-28T10:26:26.400Z,102424.17
2019-03-28T10:28:59.760Z,102415.33
2019-03-28T10:31:32.155Z,102421.06
2019-03-28T10:34:04.655Z,102416.63
2019-03-28T10:36:36.916Z,102418.55
2019-03-28T10:39:10.192Z,102418.28
2019-03-28T10:41:42.941Z,102415.77
2019-03-28T10:44:15.360Z,102417.95
2019-03-28T10:46:47.835Z,102412.23
2019-03-28T10:49:20.010Z,102412.20
2019-03-28T10:51:53.311Z,102411.80
2019-03-28T10:54:25.889Z,102415.71
2019-03-28T10:57:12.504Z,102416.61
2019-03-28T10:59:33.721Z,102411.80
2019-03-28T11:02:06.086Z,102416.67
2019-03-28T11:04:38.431Z,102421.01
2019-03-28T11:07:10.601Z,102426.56
2019-03-28T11:09:43.311Z,102425.75
2019-03-28T11:12:15.951Z,102433.81
2019-03-28T11:14:48.506Z,102432.72
2019-03-28T11:17:21.792Z,102437.28
2019-03-28T11:19:56.134Z,102429.57
2019-03-28T11:22:29.310Z,102429.91
2019-03-28T11:25:01.485Z,102435.48
2019-03-28T11:27:33.713Z,102435.92
2019-03-28T11:30:10.616Z,102440.81
2019-03-28T11:32:43.300Z,102442.64
2019-03-28T11:35:15.878Z,102438.84
2019-03-28T11:37:48.181Z,102431.36
2019-03-28T11:40:20.811Z,102436.29
2019-03-28T11:42:53.879Z,102431.44
2019-03-28T11:45:27.225Z,102430.78
2019-03-28T11:47:59.551Z,102431.70
2019-03-28T11:50:32.071Z,102425.28
2019-03-28T11:53:04.661Z,102424.27
2019-03-28T11:55:36.866Z,102426.38
2019-03-28T11:58:09.471Z,102427.41
2019-03-28T12:00:41.771Z,102430.51
2019-03-28T12:03:14.215Z,102435.52
2019-03-28T12:05:46.721Z,102435.69
2019-03-28T12:08:19.075Z,102441.36
2019-03-28T12:10:51.950Z,102436.73
2019-03-28T12:13:25.641Z,102437.88
2019-03-28T12:15:57.901Z,102438.47
2019-03-28T12:18:30.256Z,102429.66
2019-03-28T12:21:03.536Z,102429.52
2019-03-28T12:23:36.135Z,102429.52
2019-03-28T12:26:08.701Z,102430.44
2019-03-28T12:28:41.763Z,102429.01
2019-03-28T12:31:14.000Z,102431.03
2019-03-28T12:33:46.375Z,102438.27
2019-03-28T12:36:19.061Z,102445.27
2019-03-28T12:38:51.390Z,102448.91
2019-03-28T12:41:23.866Z,102449.20
2019-03-28T12:43:56.117Z,102450.02
2019-03-28T12:46:28.632Z,102452.20
2019-03-28T12:49:01.021Z,102451.26
2019-03-28T12:51:34.631Z,102450.66
2019-03-28T12:54:07.073Z,102451.69
2019-03-28T12:56:39.781Z,102456.05
2019-03-28T12:59:12.311Z,102467.63
2019-03-28T13:01:44.767Z,102459.51
2019-03-28T13:04:17.346Z,102466.42
2019-03-28T13:06:49.746Z,102459.84
2019-03-28T13:09:22.152Z,102461.55
2019-03-28T13:11:54.732Z,102469.73
2019-03-28T13:14:27.277Z,102470.39
2019-03-28T13:17:00.096Z,102470.60
2019-03-28T13:19:32.516Z,102474.95
2019-03-28T13:22:05.057Z,102475.78
2019-03-28T13:24:37.661Z,102478.63
2019-03-28T13:27:10.711Z,102480.66
2019-03-28T13:29:43.556Z,102473.87
2019-03-28T13:32:16.304Z,102477.39
2019-03-28T13:34:48.456Z,102477.92
2019-03-28T13:37:20.776Z,102470.02
2019-03-28T13:39:53.096Z,102476.73
2019-03-28T13:42:25.196Z,102476.36
2019-03-28T13:44:57.681Z,102472.58
2019-03-28T13:47:30.040Z,102462.91
2019-03-28T13:50:02.715Z,102463.09
2019-03-28T13:52:35.301Z,102455.91
2019-03-28T13:55:10.811Z,102452.34
2019-03-28T13:57:43.554Z,102456.87
2019-03-28T14:00:19.236Z,102454.46
2019-03-28T14:02:58.424Z,102455.38
2019-03-28T14:05:26.221Z,102463.49
2019-03-28T14:07:58.748Z,102454.58
2019-03-28T14:10:31.621Z,102460.91
2019-03-28T14:13:04.020Z,102463.16
2019-03-28T14:15:36.762Z,102453.33
2019-03-28T14:18:09.170Z,102466.50
2019-03-28T14:20:42.181Z,102475.48
2019-03-28T14:23:14.640Z,102478.05
2019-03-28T14:25:48.394Z,102472.62
2019-03-28T14:28:20.931Z,102476.94
2019-03-28T14:30:53.701Z,102479.14
2019-03-28T14:33:27.272Z,102486.19
2019-03-28T14:35:59.861Z,102481.24
2019-03-28T14:38:32.491Z,102474.00
2019-03-28T14:41:04.991Z,102477.86
2019-03-28T14:43:37.846Z,102476.69
2019-03-28T14:46:11.681Z,102491.42
2019-03-28T14:48:44.041Z,102481.72
2019-03-28T14:51:16.536Z,102478.89
2019-03-28T14:53:49.072Z,102481.24
2019-03-28T14:56:22.005Z,102476.83
2019-03-28T14:58:55.396Z,102473.58
2019-03-28T15:01:27.735Z,102469.09
2019-03-28T15:04:00.215Z,102476.16
2019-03-28T15:06:33.685Z,102469.88
2019-03-28T15:09:09.775Z,102474.92
2019-03-28T15:11:43.405Z,102478.55
2019-03-28T15:14:16.176Z,102482.97
2019-03-28T15:16:49.082Z,102486.52
2019-03-28T15:19:21.435Z,102490.41
2019-03-28T15:21:53.966Z,102489.48
2019-03-28T15:24:26.730Z,102486.70
2019-03-28T15:26:59.312Z,102485.17
2019-03-28T15:29:31.896Z,102490.28
2019-03-28T15:32:04.331Z,102493.17
2019-03-28T15:34:36.970Z,102491.98
2019-03-28T15:37:09.440Z,102493.86
2019-03-28T15:39:41.953Z,102496.74
2019-03-28T15:42:14.695Z,102488.09
2019-03-28T15:44:47.335Z,102490.63
2019-03-28T15:47:19.451Z,102486.56
2019-03-28T15:49:52.353Z,102486.77
2019-03-28T15:52:27.421Z,102494.97
2019-03-28T15:54:59.210Z,102493.66
2019-03-28T15:57:31.811Z,102497.09
2019-03-28T16:00:04.105Z,102491.04
2019-03-28T16:02:38.055Z,102491.49
2019-03-28T16:05:10.355Z,102497.74
2019-03-28T16:07:43.136Z,102500.97
2019-03-28T16:10:15.666Z,102498.09
2019-03-28T16:12:48.050Z,102503.97
2019-03-28T16:15:20.360Z,102503.38
2019-03-28T16:17:53.075Z,102503.59
2019-03-28T16:20:25.710Z,102494.10
2019-03-28T16:22:58.365Z,102499.38
2019-03-28T16:25:31.174Z,102500.08
2019-03-28T16:28:03.780Z,102499.88
2019-03-28T16:30:38.670Z,102500.98
2019-03-28T16:33:11.212Z,102496.14
2019-03-28T16:35:43.705Z,102503.61
2019-03-28T16:38:16.306Z,102502.16
2019-03-28T16:40:48.858Z,102503.84
2019-03-28T16:43:25.684Z,102507.34
2019-03-28T16:45:58.332Z,102508.48
2019-03-28T16:48:30.990Z,102513.23
2019-03-28T16:51:03.532Z,102519.71
2019-03-28T16:53:36.076Z,102518.94
2019-03-28T16:56:08.750Z,102525.81
2019-03-28T16:58:41.485Z,102529.59
2019-03-28T17:01:14.190Z,102531.58
2019-03-28T17:03:46.645Z,102531.00
2019-03-28T17:06:19.170Z,102536.58
2019-03-28T17:08:51.826Z,102535.02
2019-03-28T17:11:24.755Z,102527.70
2019-03-28T17:13:57.209Z,102534.28
2019-03-28T17:16:29.629Z,102536.08
2019-03-28T17:19:02.275Z,102533.83
2019-03-28T17:21:34.701Z,102537.89
2019-03-28T17:24:07.250Z,102539.72
2019-03-28T17:26:39.937Z,102544.56
2019-03-28T17:29:12.743Z,102542.04
2019-03-28T17:31:45.390Z,102541.62
2019-03-28T17:34:17.816Z,102539.59
2019-03-28T17:36:50.582Z,102550.58
2019-03-28T17:39:23.230Z,102552.39
2019-03-28T17:41:55.935Z,102554.27
2019-03-28T17:44:29.015Z,102553.50
2019-03-28T17:47:01.431Z,102567.53
2019-03-28T17:49:34.151Z,102568.03
2019-03-28T17:52:07.111Z,102562.40
2019-03-28T17:54:40.480Z,102567.83
2019-03-28T17:57:13.714Z,102565.25
2019-03-28T17:59:46.546Z,102568.27
2019-03-28T18:02:19.130Z,102573.98
2019-03-28T18:04:51.757Z,102570.03
2019-03-28T18:07:24.465Z,102577.93
2019-03-28T18:09:56.905Z,102577.11
2019-03-28T18:12:29.815Z,102588.95
2019-03-28T18:15:02.416Z,102584.62
2019-03-28T18:17:35.335Z,102588.62
2019-03-28T18:20:08.650Z,102591.70
2019-03-28T18:22:41.135Z,102594.44
2019-03-28T18:25:13.623Z,102594.95
2019-03-28T18:27:46.172Z,102593.84
2019-03-28T18:30:20.225Z,102593.52
2019-03-28T18:32:52.852Z,102598.56
2019-03-28T18:35:25.168Z,102597.81
2019-03-28T18:37:57.806Z,102597.53
2019-03-28T18:40:30.161Z,102599.89
2019-03-28T18:43:02.938Z,102600.92
2019-03-28T18:45:35.888Z,102607.32
2019-03-28T18:48:09.334Z,102609.78
2019-03-28T18:50:42.413Z,102601.33
2019-03-28T18:53:14.736Z,102601.59
2019-03-28T18:55:47.110Z,102604.86
2019-03-28T18:58:19.540Z,102605.50
2019-03-28T19:00:52.316Z,102606.97
2019-03-28T19:03:24.665Z,102614.55
2019-03-28T19:05:57.345Z,102614.69
2019-03-28T19:08:29.810Z,102609.09
2019-03-28T19:11:02.341Z,102611.38
2019-03-28T19:13:35.615Z,102614.94
2019-03-28T19:16:08.240Z,102616.30
2019-03-28T19:18:40.650Z,102619.89
2019-03-28T19:21:13.253Z,102618.18
2019-03-28T19:23:45.631Z,102622.16
2019-03-28T19:26:18.040Z,102623.92
2019-03-28T19:28:50.641Z,102626.98
2019-03-28T19:31:23.275Z,102631.02
2019-03-28T19:33:55.700Z,102620.20
2019-03-28T19:36:28.236Z,102617.28
2019-03-28T19:39:00.460Z,102614.83
2019-03-28T19:41:34.507Z,102605.39
2019-03-28T19:44:06.930Z,102602.23
2019-03-28T19:46:39.392Z,102622.47
2019-03-28T19:49:11.717Z,102621.33
2019-03-28T19:51:47.491Z,102621.94
2019-03-28T19:54:18.475Z,102619.55
2019-03-28T19:56:51.125Z,102619.70
2019-03-28T19:59:23.635Z,102619.87
2019-03-28T20:01:56.256Z,102624.44
2019-03-28T20:04:29.066Z,102619.38
2019-03-28T20:07:01.531Z,102619.09
2019-03-28T20:09:34.236Z,102611.00
2019-03-28T20:12:06.888Z,102625.36
2019-03-28T20:14:39.506Z,102625.36
2019-03-28T20:17:12.192Z,102624.16
2019-03-28T20:19:44.410Z,102626.07
2019-03-28T20:22:16.764Z,102623.17
2019-03-28T20:24:49.255Z,102623.17
2019-03-28T20:27:22.373Z,102627.64
2019-03-28T20:29:55.994Z,102626.86
2019-03-28T20:32:28.500Z,102622.65
2019-03-28T20:35:01.200Z,102628.84
2019-03-28T20:37:33.926Z,102625.85
2019-03-28T20:40:09.192Z,102629.38
2019-03-28T20:42:43.005Z,102634.64
2019-03-28T20:45:16.970Z,102633.33
2019-03-28T20:47:50.868Z,102639.44
2019-03-28T20:50:23.902Z,102633.27
2019-03-28T20:52:56.445Z,102633.59
2019-03-28T20:55:28.868Z,102636.92
2019-03-28T20:58:01.295Z,102638.58
2019-03-28T21:00:46.470Z,102645.44
2019-03-28T21:03:18.921Z,102644.41
2019-03-28T21:05:51.525Z,102644.74
2019-03-28T21:08:23.971Z,102643.77
2019-03-28T21:10:56.350Z,102654.63
2019-03-28T21:13:30.055Z,102653.31
2019-03-28T21:16:02.530Z,102646.26
2019-03-28T21:18:34.900Z,102652.30
2019-03-28T21:21:07.620Z,102655.73
2019-03-28T21:23:40.360Z,102653.65
2019-03-28T21:26:12.856Z,102653.65
2019-03-28T21:28:47.497Z,102658.38
2019-03-28T21:31:19.550Z,102655.73
2019-03-28T21:33:54.900Z,102658.38
2019-03-28T21:36:29.933Z,102657.04
2019-03-28T21:39:01.331Z,102661.81
2019-03-28T21:41:35.793Z,102660.91
2019-03-28T21:44:07.886Z,102661.38
2019-03-28T21:46:40.280Z,102662.25
2019-03-28T21:49:13.915Z,102655.08
2019-03-28T21:51:47.642Z,102655.08
2019-03-28T21:54:20.196Z,102665.76
2019-03-28T21:56:52.833Z,102663.87
2019-03-28T21:59:25.120Z,102670.28
2019-03-28T22:01:58.360Z,102668.38
2019-03-28T22:04:31.236Z,102672.48
2019-03-28T22:07:03.821Z,102672.48
2019-03-28T22:09:39.501Z,102658.39
2019-03-28T22:12:10.192Z,102658.39
2019-03-28T22:14:42.716Z,102650.47
2019-03-28T22:17:15.866Z,102650.00
2019-03-28T22:19:48.645Z,102658.22
2019-03-28T22:22:21.115Z,102658.22
2019-03-28T22:24:53.430Z,102650.59
2019-03-28T22:27:26.105Z,102650.59
2019-03-28T22:29:58.485Z,102650.15
2019-03-28T22:32:30.950Z,102647.09
2019-03-28T22:35:03.332Z,102640.97
2019-03-28T22:37:35.531Z,102643.64
2019-03-28T22:40:11.756Z,102647.17
2019-03-28T22:42:42.945Z,102644.11
2019-03-28T22:45:15.551Z,102644.11
2019-03-28T22:47:48.269Z,102640.30
2019-03-28T22:50:20.897Z,102640.66
2019-03-28T22:52:53.504Z,102639.82
2019-03-28T22:55:25.896Z,102645.42
2019-03-28T22:57:58.490Z,102648.84
2019-03-28T23:00:44.949Z,102654.44
2019-03-28T23:03:19.085Z,102654.28
2019-03-28T23:05:51.660Z,102652.49
2019-03-28T23:08:24.265Z,102644.14
2019-03-28T23:10:56.750Z,102644.14
2019-03-28T23:13:29.210Z,102650.97
2019-03-28T23:16:02.352Z,102650.97
2019-03-28T23:18:35.688Z,102652.64
2019-03-28T23:21:08.120Z,102631.33
2019-03-28T23:23:40.612Z,102645.36
2019-03-28T23:26:13.207Z,102647.91
2019-03-28T23:28:45.577Z,102647.42
2019-03-28T23:31:18.350Z,102648.82
2019-03-28T23:33:51.022Z,102647.87
2019-03-28T23:36:23.435Z,102645.23
2019-03-28T23:38:56.046Z,102643.48
2019-03-28T23:41:28.605Z,102646.91
2019-03-28T23:44:01.885Z,102639.50
2019-03-28T23:46:34.370Z,102642.56
2019-03-28T23:49:18.086Z,102639.11
2019-03-28T23:52:02.062Z,102631.23
2019-03-28T23:54:39.510Z,102626.51
2019-03-28T23:57:11.951Z,102637.76
2019-03-28T23:59:44.496Z,102637.67
